Time;durP1;ratioP1;P1;durP2;ratioP2;P2;SDS_P1;SDS_P2;PMS_P1;PMS_P2;Temp;Humidity;BMP_temperature;BMP_pressure;BME280_temperature;BME280_humidity;BME280_pressure;Samples;Min_cycle;Max_cycle;Signal;HPM_P1;HPM_P2
2022/07/29 00:00:06;;;;;;;283.02;195.05;;;;;;;;;;4752257;30;20082;-56
2022/07/29 00:02:34;;;;;;;8.98;4.85;;;;;;;;;;4752161;30;20068;-46
2022/07/29 00:05:01;;;;;;;4.68;0.95;;;;;;;;;;4751770;30;20101;-49
2022/07/29 00:07:30;;;;;;;5.15;1.23;;;;;;;;;;4752031;30;20455;-52
2022/07/29 00:09:57;;;;;;;0.85;0.68;;;;;;;;;;4751842;30;20143;-51
2022/07/29 00:12:25;;;;;;;0.50;0.50;;;;;;;;;;4751721;30;20402;-46
2022/07/29 00:14:56;;;;;;;1.02;0.43;;;;;;;;;;4751750;30;20064;-52
2022/07/29 00:17:24;;;;;;;2.20;0.47;;;;;;;;;;4751703;30;20679;-45
2022/07/29 00:19:51;;;;;;;2.13;0.60;;;;;;;;;;4750730;30;20048;-55
2022/07/29 00:22:19;;;;;;;3.38;0.70;;;;;;;;;;4751744;30;20044;-56
2022/07/29 00:24:48;;;;;;;1.95;0.35;;;;;;;;;;4751504;30;20458;-44
2022/07/29 00:27:16;;;;;;;1.33;0.60;;;;;;;;;;4751783;30;20562;-46
2022/07/29 00:29:44;;;;;;;1.58;0.63;;;;;;;;;;4751622;30;20044;-46
2022/07/29 00:32:12;;;;;;;1.25;0.52;;;;;;;;;;4751739;30;20048;-47
2022/07/29 00:37:28;;;;;;;1.50;0.50;;;;;;;;;;4751558;30;20058;-48
2022/07/29 00:39:55;;;;;;;0.43;0.32;;;;;;;;;;4751475;30;20378;-46
2022/07/29 00:42:22;;;;;;;1.33;0.70;;;;;;;;;;4751374;30;20040;-47
2022/07/29 00:44:50;;;;;;;2.40;0.65;;;;;;;;;;4751591;30;20517;-48
2022/07/29 00:47:17;;;;;;;4.43;0.63;;;;;;;;;;4751376;30;20044;-44
2022/07/29 00:49:44;;;;;;;6.30;1.65;;;;;;;;;;4751366;30;20044;-48
2022/07/29 00:52:12;;;;;;;6.03;2.67;;;;;;;;;;4751158;30;20109;-45
2022/07/29 00:54:43;;;;;;;6.03;0.90;;;;;;;;;;4750977;30;20048;-46
2022/07/29 00:57:11;;;;;;;1.52;0.60;;;;;;;;;;4750365;30;20079;-49
2022/07/29 00:59:41;;;;;;;2.45;0.70;;;;;;;;;;4751479;30;20076;-45
2022/07/29 01:02:08;;;;;;;3.28;1.23;;;;;;;;;;4751394;30;20091;-46
2022/07/29 01:04:36;;;;;;;1.70;0.73;;;;;;;;;;4751198;30;20056;-48
2022/07/29 01:07:05;;;;;;;1.42;0.70;;;;;;;;;;4751200;30;20051;-45
2022/07/29 01:09:34;;;;;;;1.08;0.60;;;;;;;;;;4751354;30;20052;-45
2022/07/29 01:12:17;;;;;;;3.03;0.68;;;;;;;;;;4751432;30;20107;-49
2022/07/29 01:14:45;;;;;;;4.05;0.65;;;;;;;;;;4750961;30;20063;-49
2022/07/29 01:17:45;;;;;;;2.78;0.80;;;;;;;;;;4751113;30;20055;-46
2022/07/29 01:20:31;;;;;;;2.92;0.73;;;;;;;;;;4741322;30;20084;-46
2022/07/29 01:23:13;;;;;;;8.38;5.10;;;;;;;;;;4751013;30;20062;-47
2022/07/29 01:25:57;;;;;;;4.10;0.70;;;;;;;;;;4751489;30;20468;-50
2022/07/29 01:28:39;;;;;;;0.70;0.60;;;;;;;;;;4750840;30;20062;-48
2022/07/29 01:31:11;;;;;;;3.00;0.50;;;;;;;;;;4751196;30;20054;-46
2022/07/29 01:33:58;;;;;;;1.77;0.50;;;;;;;;;;4751077;30;20059;-49
2022/07/29 01:36:32;;;;;;;8.98;1.70;;;;;;;;;;4750981;30;20084;-46
2022/07/29 01:39:09;;;;;;;1.45;0.80;;;;;;;;;;4751169;30;20044;-45
2022/07/29 01:41:43;;;;;;;5.78;1.00;;;;;;;;;;4750946;30;20041;-44
2022/07/29 01:44:12;;;;;;;;;;;;;;;;;;4751420;30;20052;-47
2022/07/29 01:46:46;;;;;;;2.15;0.98;;;;;;;;;;4751197;30;19935;-49
2022/07/29 01:49:21;;;;;;;2.90;1.00;;;;;;;;;;4751130;30;20041;-47
2022/07/29 01:51:53;;;;;;;2.92;1.42;;;;;;;;;;4750999;30;20048;-49
2022/07/29 01:54:34;;;;;;;2.55;0.90;;;;;;;;;;4750223;30;20131;-49
2022/07/29 01:57:04;;;;;;;2.35;1.20;;;;;;;;;;4750979;30;20105;-46
2022/07/29 01:59:34;;;;;;;4.47;1.48;;;;;;;;;;4750814;30;20122;-46
2022/07/29 02:02:02;;;;;;;3.08;1.40;;;;;;;;;;4750912;30;20052;-51
2022/07/29 02:04:33;;;;;;;3.70;0.90;;;;;;;;;;4750580;30;20063;-55
2022/07/29 02:07:04;;;;;;;3.80;0.93;;;;;;;;;;4765189;30;20424;-53
2022/07/29 02:09:35;;;;;;;1.65;1.00;;;;;;;;;;4753865;30;20098;-51
2022/07/29 02:12:06;;;;;;;2.28;1.00;;;;;;;;;;4753995;30;20048;-51
2022/07/29 02:14:39;;;;;;;4.68;1.20;;;;;;;;;;4753848;30;20062;-54
2022/07/29 02:17:07;;;;;;;;;;;;;;;;;;4754211;30;20059;-51
2022/07/29 02:19:37;;;;;;;1.20;0.82;;;;;;;;;;4753986;30;19929;-56
2022/07/29 02:22:06;;;;;;;1.70;0.90;;;;;;;;;;4753828;30;20507;-56
2022/07/29 02:24:36;;;;;;;4.50;1.40;;;;;;;;;;4753624;30;20506;-51
2022/07/29 02:27:04;;;;;;;3.45;1.05;;;;;;;;;;4753862;30;20349;-53
2022/07/29 02:29:37;;;;;;;3.67;1.27;;;;;;;;;;4753455;30;20069;-53
2022/07/29 02:32:06;;;;;;;2.70;1.00;;;;;;;;;;4753468;30;20059;-55
2022/07/29 02:34:35;;;;;;;3.08;0.93;;;;;;;;;;4753454;30;20138;-51
2022/07/29 02:37:04;;;;;;;3.00;0.95;;;;;;;;;;4753685;30;20040;-52
2022/07/29 02:39:31;;;;;;;4.20;1.48;;;;;;;;;;4753670;30;20132;-52
2022/07/29 02:42:03;;;;;;;33.63;19.55;;;;;;;;;;4753444;30;20095;-51
2022/07/29 02:44:32;;;;;;;6.95;2.80;;;;;;;;;;4753408;30;20132;-48
2022/07/29 02:47:03;;;;;;;3.15;1.27;;;;;;;;;;4753213;30;20553;-50
2022/07/29 02:49:48;;;;;;;1.63;1.02;;;;;;;;;;4752356;30;20056;-52
2022/07/29 02:52:24;;;;;;;3.22;1.17;;;;;;;;;;4753215;30;20139;-49
2022/07/29 02:54:56;;;;;;;2.15;1.13;;;;;;;;;;4753073;30;20052;-52
2022/07/29 02:58:03;;;;;;;3.88;1.45;;;;;;;;;;4753336;30;20048;-49
2022/07/29 03:00:34;;;;;;;1.33;1.00;;;;;;;;;;4733544;30;20061;-50
2022/07/29 03:03:06;;;;;;;2.65;0.90;;;;;;;;;;4750352;30;20060;-53
2022/07/29 03:05:35;;;;;;;2.13;1.45;;;;;;;;;;4753228;30;20092;-54
2022/07/29 03:08:06;;;;;;;3.58;0.82;;;;;;;;;;4753038;30;20066;-51
2022/07/29 03:10:34;;;;;;;2.72;1.15;;;;;;;;;;4753131;30;20049;-51
2022/07/29 03:13:03;;;;;;;3.08;1.15;;;;;;;;;;4752997;30;20110;-54
2022/07/29 03:15:31;;;;;;;1.63;1.02;;;;;;;;;;4752596;30;20102;-50
2022/07/29 03:17:58;;;;;;;30.83;16.95;;;;;;;;;;4752674;30;20413;-54
2022/07/29 03:20:26;;;;;;;5.70;3.17;;;;;;;;;;4752793;30;20052;-52
2022/07/29 03:22:53;;;;;;;2.85;1.40;;;;;;;;;;4752851;30;20382;-50
2022/07/29 03:25:20;;;;;;;1.92;1.13;;;;;;;;;;4751781;30;20048;-50
2022/07/29 03:27:48;;;;;;;4.28;1.48;;;;;;;;;;4752681;30;20056;-48
2022/07/29 03:30:16;;;;;;;2.78;1.10;;;;;;;;;;4752416;30;20052;-53
2022/07/29 03:32:52;;;;;;;2.00;1.20;;;;;;;;;;4752681;30;20076;-49
2022/07/29 03:35:20;;;;;;;1.98;1.20;;;;;;;;;;4752374;30;20063;-54
2022/07/29 03:37:47;;;;;;;1.95;1.17;;;;;;;;;;4752535;30;20076;-48
2022/07/29 03:40:21;;;;;;;34.38;20.70;;;;;;;;;;4752587;30;20060;-47
2022/07/29 03:42:51;;;;;;;4.30;2.25;;;;;;;;;;4752381;30;20060;-46
2022/07/29 03:45:20;;;;;;;4.18;1.15;;;;;;;;;;4752506;30;20056;-49
2022/07/29 03:47:51;;;;;;;28.92;17.42;;;;;;;;;;4752490;30;20052;-55
2022/07/29 03:50:27;;;;;;;6.25;1.80;;;;;;;;;;4752211;30;20079;-48
2022/07/29 03:52:54;;;;;;;1.83;1.40;;;;;;;;;;4752293;30;20524;-49
2022/07/29 03:55:21;;;;;;;1.27;1.05;;;;;;;;;;4751205;30;20063;-49
2022/07/29 03:57:49;;;;;;;1.20;0.88;;;;;;;;;;4752428;30;20566;-55
2022/07/29 04:00:17;;;;;;;1.55;0.98;;;;;;;;;;4752164;30;20386;-48
2022/07/29 04:02:48;;;;;;;1.55;1.20;;;;;;;;;;4752412;30;20048;-47
2022/07/29 04:05:17;;;;;;;2.25;1.08;;;;;;;;;;4752143;30;20056;-52
2022/07/29 04:07:48;;;;;;;2.72;1.20;;;;;;;;;;4751890;30;20051;-47
2022/07/29 04:10:16;;;;;;;2.97;1.20;;;;;;;;;;4750940;30;20576;-51
2022/07/29 04:12:59;;;;;;;4.53;1.23;;;;;;;;;;4751065;30;20052;-50
2022/07/29 04:15:29;;;;;;;1.95;1.25;;;;;;;;;;4750812;30;20064;-49
2022/07/29 04:17:58;;;;;;;2.53;1.58;;;;;;;;;;4750811;30;20480;-49
2022/07/29 04:20:26;;;;;;;3.28;1.60;;;;;;;;;;4750782;30;20076;-52
2022/07/29 04:22:53;;;;;;;1.85;1.20;;;;;;;;;;4749886;30;20520;-52
2022/07/29 04:25:20;;;;;;;2.15;1.45;;;;;;;;;;4750737;30;20094;-47
2022/07/29 04:28:03;;;;;;;2.05;1.27;;;;;;;;;;4749680;30;20048;-56
2022/07/29 04:30:31;;;;;;;4.53;1.40;;;;;;;;;;4750276;30;20162;-48
2022/07/29 04:33:03;;;;;;;1.90;1.27;;;;;;;;;;4750996;30;20055;-53
2022/07/29 04:35:31;;;;;;;2.28;1.30;;;;;;;;;;4750626;30;20048;-52
2022/07/29 04:38:05;;;;;;;3.53;1.67;;;;;;;;;;4750723;30;20056;-53
2022/07/29 04:40:41;;;;;;;3.33;1.30;;;;;;;;;;4750577;30;20044;-49
2022/07/29 04:43:08;;;;;;;3.53;1.38;;;;;;;;;;4750553;30;20048;-45
2022/07/29 04:45:38;;;;;;;2.88;1.33;;;;;;;;;;4763989;30;20692;-53
2022/07/29 04:48:05;;;;;;;2.17;1.00;;;;;;;;;;4750600;30;20044;-48
2022/07/29 04:50:33;;;;;;;1.88;1.17;;;;;;;;;;4751387;30;20151;-55
2022/07/29 04:53:00;;;;;;;1.50;1.23;;;;;;;;;;4751392;30;20056;-51
2022/07/29 04:55:27;;;;;;;3.38;1.20;;;;;;;;;;4764608;30;20052;-51
2022/07/29 04:57:54;;;;;;;2.00;1.10;;;;;;;;;;4751446;30;20050;-52
2022/07/29 05:00:22;;;;;;;3.17;1.10;;;;;;;;;;4751306;30;20110;-52
2022/07/29 05:02:59;;;;;;;1.42;0.95;;;;;;;;;;4751374;30;20139;-50
2022/07/29 05:05:27;;;;;;;1.25;0.93;;;;;;;;;;4751378;30;20041;-49
2022/07/29 05:07:56;;;;;;;2.75;0.90;;;;;;;;;;4751349;30;20106;-49
2022/07/29 05:10:23;;;;;;;0.95;0.80;;;;;;;;;;4751088;30;20052;-49
2022/07/29 05:12:51;;;;;;;1.73;1.10;;;;;;;;;;4751429;30;20056;-47
2022/07/29 05:15:18;;;;;;;1.08;0.90;;;;;;;;;;4751031;30;20096;-48
2022/07/29 05:17:45;;;;;;;2.17;1.20;;;;;;;;;;4751386;30;20056;-46
2022/07/29 05:20:13;;;;;;;2.00;1.08;;;;;;;;;;4751628;30;20119;-47
2022/07/29 05:22:40;;;;;;;1.63;0.90;;;;;;;;;;4751083;30;20052;-51
2022/07/29 05:25:08;;;;;;;2.13;1.30;;;;;;;;;;4751302;30;20509;-49
2022/07/29 05:27:36;;;;;;;5.95;1.10;;;;;;;;;;4750938;30;20048;-51
2022/07/29 05:30:07;;;;;;;5.28;1.17;;;;;;;;;;4751137;30;20051;-48
2022/07/29 05:32:34;;;;;;;1.73;1.10;;;;;;;;;;4750976;30;20050;-48
2022/07/29 05:35:02;;;;;;;2.17;1.10;;;;;;;;;;4750930;30;20139;-50
2022/07/29 05:37:29;;;;;;;1.27;1.02;;;;;;;;;;4750967;30;20064;-51
2022/07/29 05:39:56;;;;;;;1.98;1.42;;;;;;;;;;4751015;30;20053;-47
2022/07/29 05:42:25;;;;;;;2.70;1.52;;;;;;;;;;4752429;30;20055;-47
2022/07/29 05:44:53;;;;;;;1.20;0.88;;;;;;;;;;4754398;30;20119;-48
2022/07/29 05:47:21;;;;;;;2.10;1.40;;;;;;;;;;4754341;30;20509;-50
2022/07/29 05:49:48;;;;;;;1.60;1.20;;;;;;;;;;4754737;30;20048;-47
2022/07/29 05:52:18;;;;;;;1.17;0.82;;;;;;;;;;4754351;30;20056;-51
2022/07/29 05:54:46;;;;;;;1.35;1.00;;;;;;;;;;4754418;30;20601;-49
2022/07/29 05:57:24;;;;;;;1.25;1.00;;;;;;;;;;4754501;30;20048;-48
2022/07/29 05:59:52;;;;;;;1.20;0.90;;;;;;;;;;4753772;30;20572;-49
2022/07/29 06:02:19;;;;;;;1.23;0.93;;;;;;;;;;4753483;30;20501;-48
2022/07/29 06:04:46;;;;;;;2.75;1.00;;;;;;;;;;4752669;30;20060;-49
2022/07/29 06:07:14;;;;;;;1.42;0.90;;;;;;;;;;4754086;30;20101;-50
2022/07/29 06:09:42;;;;;;;1.38;0.80;;;;;;;;;;4754136;30;20056;-51
2022/07/29 06:12:09;;;;;;;3.42;1.25;;;;;;;;;;4754032;30;20502;-55
2022/07/29 06:14:38;;;;;;;1.38;0.90;;;;;;;;;;4751522;30;20090;-51
2022/07/29 06:17:05;;;;;;;1.20;1.00;;;;;;;;;;4753903;30;20174;-53
2022/07/29 06:19:36;;;;;;;1.33;0.80;;;;;;;;;;4753900;30;20509;-48
2022/07/29 06:22:04;;;;;;;4.50;0.93;;;;;;;;;;4753838;30;20048;-50
2022/07/29 06:24:37;;;;;;;1.85;1.20;;;;;;;;;;4753740;30;20044;-48
2022/07/29 06:27:04;;;;;;;1.88;1.20;;;;;;;;;;4753899;30;20072;-49
2022/07/29 06:29:31;;;;;;;1.50;1.13;;;;;;;;;;4753683;30;20052;-50
2022/07/29 06:31:59;;;;;;;2.03;0.90;;;;;;;;;;4753805;30;20095;-47
2022/07/29 06:34:26;;;;;;;3.00;1.05;;;;;;;;;;4753458;30;20055;-54
2022/07/29 06:36:53;;;;;;;2.22;0.90;;;;;;;;;;4753573;30;20048;-48
2022/07/29 06:39:22;;;;;;;2.90;1.10;;;;;;;;;;4753654;30;20056;-49
2022/07/29 06:41:50;;;;;;;1.50;1.20;;;;;;;;;;4753311;30;20405;-49
2022/07/29 06:44:22;;;;;;;1.02;0.80;;;;;;;;;;4767078;30;20417;-49
2022/07/29 06:46:51;;;;;;;1.38;1.05;;;;;;;;;;4753473;30;20080;-48
2022/07/29 06:49:18;;;;;;;2.10;0.77;;;;;;;;;;4753254;30;20043;-46
2022/07/29 06:51:46;;;;;;;1.30;1.05;;;;;;;;;;4753222;30;20091;-49
2022/07/29 06:54:13;;;;;;;1.98;1.30;;;;;;;;;;4752979;30;20097;-46
2022/07/29 06:56:41;;;;;;;1.33;1.23;;;;;;;;;;4753256;30;20560;-49
2022/07/29 06:59:09;;;;;;;1.45;1.20;;;;;;;;;;4753319;30;20532;-47
2022/07/29 07:01:42;;;;;;;1.88;1.20;;;;;;;;;;4753327;30;20109;-47
2022/07/29 07:04:10;;;;;;;2.40;1.10;;;;;;;;;;4752976;30;20044;-49
2022/07/29 07:06:37;;;;;;;3.95;1.58;;;;;;;;;;4753104;30;20054;-48
2022/07/29 07:09:05;;;;;;;1.65;1.10;;;;;;;;;;4752883;30;20114;-49
2022/07/29 07:11:33;;;;;;;3.83;1.25;;;;;;;;;;4753024;30;20119;-49
2022/07/29 07:14:01;;;;;;;1.17;1.00;;;;;;;;;;4753063;30;20048;-48
2022/07/29 07:16:31;;;;;;;2.47;1.05;;;;;;;;;;4752328;30;20079;-51
2022/07/29 07:18:59;;;;;;;3.47;1.10;;;;;;;;;;4752793;30;20409;-47
2022/07/29 07:21:27;;;;;;;1.80;1.10;;;;;;;;;;4752683;30;20044;-49
2022/07/29 07:23:56;;;;;;;2.47;1.75;;;;;;;;;;4752640;30;20063;-51
2022/07/29 07:26:24;;;;;;;1.50;1.00;;;;;;;;;;4752843;30;20048;-51
2022/07/29 07:28:51;;;;;;;1.35;1.00;;;;;;;;;;4752512;30;20517;-48
2022/07/29 07:31:18;;;;;;;1.40;0.90;;;;;;;;;;4752852;30;20055;-47
2022/07/29 07:33:46;;;;;;;1.50;1.10;;;;;;;;;;4752599;30;20056;-46
2022/07/29 07:36:13;;;;;;;1.73;1.38;;;;;;;;;;4752421;30;20524;-51
2022/07/29 07:38:41;;;;;;;2.75;1.38;;;;;;;;;;4752584;30;20052;-49
2022/07/29 07:41:08;;;;;;;3.20;1.20;;;;;;;;;;4752331;30;20048;-50
2022/07/29 07:43:35;;;;;;;1.80;1.17;;;;;;;;;;4752715;30;20075;-49
2022/07/29 07:46:03;;;;;;;3.72;1.35;;;;;;;;;;4752421;30;20124;-47
2022/07/29 07:48:30;;;;;;;1.35;1.17;;;;;;;;;;4752282;30;20044;-50
2022/07/29 07:50:57;;;;;;;1.95;1.35;;;;;;;;;;4752561;30;20048;-50
2022/07/29 07:53:25;;;;;;;2.78;1.30;;;;;;;;;;4751965;30;20044;-53
2022/07/29 07:55:52;;;;;;;1.70;1.30;;;;;;;;;;4752365;30;20379;-49
2022/07/29 07:58:36;;;;;;;;;;;;;;;;;;4752480;30;20527;-48
2022/07/29 08:01:03;;;;;;;2.85;1.23;;;;;;;;;;4751985;30;19933;-51
2022/07/29 08:03:30;;;;;;;2.28;1.83;;;;;;;;;;4752277;30;20076;-50
2022/07/29 08:05:58;;;;;;;1.40;1.17;;;;;;;;;;4751412;30;20505;-46
2022/07/29 08:08:25;;;;;;;1.63;1.40;;;;;;;;;;4751798;30;20508;-47
2022/07/29 08:10:53;;;;;;;3.53;1.88;;;;;;;;;;4752105;30;20102;-47
2022/07/29 08:13:23;;;;;;;2.65;1.35;;;;;;;;;;4751879;30;20040;-48
2022/07/29 08:15:57;;;;;;;2.45;1.45;;;;;;;;;;4751724;30;20200;-55
2022/07/29 08:18:27;;;;;;;3.58;1.65;;;;;;;;;;4751913;30;20429;-46
2022/07/29 08:20:54;;;;;;;1.70;1.30;;;;;;;;;;4751957;30;20048;-48
2022/07/29 08:23:26;;;;;;;2.95;1.60;;;;;;;;;;4751754;30;20431;-55
2022/07/29 08:26:14;;;;;;;2.17;1.50;;;;;;;;;;4751886;30;20045;-51
2022/07/29 08:28:49;;;;;;;2.88;1.40;;;;;;;;;;4752028;30;20044;-51
2022/07/29 08:31:17;;;;;;;2.63;1.83;;;;;;;;;;4751647;30;20131;-44
2022/07/29 08:33:44;;;;;;;2.35;1.60;;;;;;;;;;4751995;30;20391;-48
2022/07/29 08:36:12;;;;;;;3.40;1.98;;;;;;;;;;4750762;30;20517;-50
2022/07/29 08:38:40;;;;;;;2.70;1.70;;;;;;;;;;4749948;30;20079;-47
2022/07/29 08:41:07;;;;;;;2.25;1.83;;;;;;;;;;4750057;30;20512;-48
2022/07/29 08:43:37;;;;;;;4.63;1.92;;;;;;;;;;4750248;30;20086;-46
2022/07/29 08:46:04;;;;;;;3.42;2.30;;;;;;;;;;4750165;30;20072;-48
2022/07/29 08:48:32;;;;;;;2.35;1.83;;;;;;;;;;4749869;30;20098;-53
2022/07/29 08:51:01;;;;;;;1.98;1.67;;;;;;;;;;4749958;30;20127;-52
2022/07/29 08:53:30;;;;;;;2.60;2.20;;;;;;;;;;4749977;30;20127;-50
2022/07/29 08:55:59;;;;;;;4.30;2.55;;;;;;;;;;4750009;30;20394;-51
2022/07/29 08:58:31;;;;;;;2.92;2.40;;;;;;;;;;4749961;30;20052;-47
2022/07/29 09:01:03;;;;;;;3.88;2.47;;;;;;;;;;4748489;30;20494;-47
2022/07/29 09:03:36;;;;;;;3.33;2.50;;;;;;;;;;4749846;30;20051;-49
2022/07/29 09:06:04;;;;;;;3.45;2.03;;;;;;;;;;4749767;30;20048;-51
2022/07/29 09:08:32;;;;;;;6.75;3.63;;;;;;;;;;4749706;30;20123;-47
2022/07/29 09:11:01;;;;;;;3.83;3.03;;;;;;;;;;4749784;30;20519;-51
2022/07/29 09:13:31;;;;;;;2.90;2.33;;;;;;;;;;4749597;30;20056;-50
2022/07/29 09:15:58;;;;;;;4.03;2.60;;;;;;;;;;4750350;30;20060;-46
2022/07/29 09:18:40;;;;;;;3.55;2.67;;;;;;;;;;4753289;30;20040;-48
2022/07/29 09:24:13;;;;;;;3.30;2.45;;;;;;;;;;4753381;30;20048;-48
2022/07/29 09:26:45;;;;;;;3.50;3.20;;;;;;;;;;4753098;30;20071;-46
2022/07/29 09:29:17;;;;;;;5.28;3.00;;;;;;;;;;4753331;30;20052;-50
2022/07/29 09:31:50;;;;;;;5.45;3.22;;;;;;;;;;4753265;30;20040;-46
2022/07/29 09:34:23;;;;;;;3.90;3.20;;;;;;;;;;4753014;30;20048;-46
2022/07/29 09:36:51;;;;;;;3.25;2.70;;;;;;;;;;4752724;30;20312;-50
2022/07/29 09:39:36;;;;;;;4.82;2.78;;;;;;;;;;4752988;30;20131;-51
2022/07/29 09:42:06;;;;;;;3.42;1.98;;;;;;;;;;4752852;30;20040;-47
2022/07/29 09:44:49;;;;;;;2.83;1.85;;;;;;;;;;4752864;30;20070;-53
2022/07/29 09:47:18;;;;;;;4.50;2.30;;;;;;;;;;4752739;30;20138;-47
2022/07/29 09:49:57;;;;;;;3.60;2.35;;;;;;;;;;4753083;30;20510;-47
2022/07/29 09:52:29;;;;;;;3.40;1.83;;;;;;;;;;4752668;30;20596;-46
2022/07/29 09:55:08;;;;;;;2.83;2.10;;;;;;;;;;4766353;30;20051;-49
2022/07/29 09:57:44;;;;;;;2.10;1.60;;;;;;;;;;4752743;30;20048;-49
2022/07/29 10:00:19;;;;;;;2.80;1.63;;;;;;;;;;4752820;30;20056;-46
2022/07/29 10:02:47;;;;;;;2.78;1.77;;;;;;;;;;4752566;30;20118;-46
2022/07/29 10:05:25;;;;;;;4.38;2.20;;;;;;;;;;4752667;30;20040;-48
2022/07/29 10:08:02;;;;;;;2.15;1.40;;;;;;;;;;4752533;30;20584;-47
2022/07/29 10:10:33;;;;;;;2.08;1.75;;;;;;;;;;4752421;30;20160;-48
2022/07/29 10:13:06;;;;;;;4.07;2.00;;;;;;;;;;4752391;30;20048;-54
2022/07/29 10:15:44;;;;;;;2.60;2.00;;;;;;;;;;4750925;30;20567;-50
2022/07/29 10:18:14;;;;;;;5.82;1.80;;;;;;;;;;4752262;30;20047;-48
2022/07/29 10:20:41;;;;;;;2.28;1.60;;;;;;;;;;4752334;30;20052;-50
2022/07/29 10:23:09;;;;;;;2.25;1.42;;;;;;;;;;4752357;30;20083;-50
2022/07/29 10:25:37;;;;;;;2.35;1.77;;;;;;;;;;4750939;30;20388;-48
2022/07/29 10:28:05;;;;;;;1.60;1.40;;;;;;;;;;4751020;30;20513;-48
2022/07/29 10:30:34;;;;;;;22.60;18.58;;;;;;;;;;4752269;30;20048;-46
2022/07/29 10:33:26;;;;;;;4.07;2.35;;;;;;;;;;4751957;30;20045;-45
2022/07/29 10:36:28;;;;;;;1.98;1.50;;;;;;;;;;4752022;30;20041;-49
2022/07/29 10:39:08;;;;;;;2.08;1.63;;;;;;;;;;4752195;30;20067;-46
2022/07/29 10:41:54;;;;;;;2.40;1.45;;;;;;;;;;4751942;30;20516;-53
2022/07/29 10:44:25;;;;;;;2.20;1.73;;;;;;;;;;4752036;30;20470;-51
2022/07/29 10:46:53;;;;;;;2.97;1.90;;;;;;;;;;4751845;30;20052;-57
2022/07/29 10:49:25;;;;;;;2.15;1.73;;;;;;;;;;4751992;30;20070;-56
2022/07/29 10:51:54;;;;;;;2.38;1.65;;;;;;;;;;4751626;30;20047;-53
2022/07/29 10:54:37;;;;;;;19.33;11.55;;;;;;;;;;4750379;30;20501;-47
2022/07/29 10:57:15;;;;;;;7.68;5.20;;;;;;;;;;4751909;30;20117;-57
2022/07/29 10:59:44;;;;;;;;;;;;;;;;;;4752149;30;20059;-58
2022/07/29 11:02:37;;;;;;;2.92;2.03;;;;;;;;;;4750508;30;19933;-49
2022/07/29 11:05:11;;;;;;;5.65;2.50;;;;;;;;;;4750075;30;20101;-58
2022/07/29 11:07:59;;;;;;;2.90;2.20;;;;;;;;;;4751608;30;20048;-57
2022/07/29 11:10:28;;;;;;;2.47;1.77;;;;;;;;;;4751586;30;20138;-51
2022/07/29 11:12:59;;;;;;;2.72;2.15;;;;;;;;;;4764790;30;20505;-56
2022/07/29 11:15:28;;;;;;;4.00;1.85;;;;;;;;;;4751399;30;20060;-56
2022/07/29 11:18:00;;;;;;;3.88;1.92;;;;;;;;;;4751320;30;20052;-58
2022/07/29 11:20:38;;;;;;;2.08;1.67;;;;;;;;;;4751412;30;20135;-54
2022/07/29 11:23:23;;;;;;;2.72;1.60;;;;;;;;;;4751139;30;20048;-57
2022/07/29 11:26:12;;;;;;;3.95;2.67;;;;;;;;;;4751394;30;20130;-56
2022/07/29 11:28:50;;;;;;;2.10;1.70;;;;;;;;;;4751542;30;20062;-57
2022/07/29 11:31:34;;;;;;;2.00;1.40;;;;;;;;;;4750202;30;20056;-53
2022/07/29 11:34:22;;;;;;;2.70;1.58;;;;;;;;;;4751137;30;20049;-58
2022/07/29 11:37:08;;;;;;;1.67;1.40;;;;;;;;;;4751114;30;20048;-57
2022/07/29 11:39:40;;;;;;;2.28;1.27;;;;;;;;;;4750966;30;20588;-50
2022/07/29 11:42:22;;;;;;;2.47;1.33;;;;;;;;;;4750621;30;20048;-54
2022/07/29 11:45:10;;;;;;;2.40;1.38;;;;;;;;;;4750966;30;20063;-57
2022/07/29 11:47:59;;;;;;;3.85;1.60;;;;;;;;;;4750925;30;20143;-47
2022/07/29 11:50:47;;;;;;;1.50;1.38;;;;;;;;;;4751142;30;20044;-54
2022/07/29 11:53:14;;;;;;;2.03;1.63;;;;;;;;;;4750898;30;20040;-57
2022/07/29 11:55:42;;;;;;;1.67;1.40;;;;;;;;;;4750834;30;20048;-56
2022/07/29 11:58:24;;;;;;;1.52;1.25;;;;;;;;;;4750715;30;20078;-49
2022/07/29 12:00:53;;;;;;;1.73;1.50;;;;;;;;;;4750747;30;20063;-54
2022/07/29 12:03:28;;;;;;;2.00;1.38;;;;;;;;;;4750550;30;20048;-57
2022/07/29 12:06:01;;;;;;;3.80;1.40;;;;;;;;;;4750507;30;20052;-58
2022/07/29 12:08:29;;;;;;;1.38;1.20;;;;;;;;;;4750357;30;20123;-57
2022/07/29 12:10:56;;;;;;;1.98;1.60;;;;;;;;;;4749302;30;20052;-55
2022/07/29 12:13:24;;;;;;;2.30;1.10;;;;;;;;;;4750282;30;20520;-53
2022/07/29 12:16:04;;;;;;;4.10;1.30;;;;;;;;;;4750117;30;20582;-57
2022/07/29 12:18:31;;;;;;;5.57;1.45;;;;;;;;;;4750293;30;20409;-56
2022/07/29 12:21:03;;;;;;;3.22;1.88;;;;;;;;;;4750317;30;20080;-58
2022/07/29 12:23:33;;;;;;;2.35;1.60;;;;;;;;;;4748733;30;20052;-58
2022/07/29 12:26:05;;;;;;;2.13;1.90;;;;;;;;;;4750337;30;20048;-57
2022/07/29 12:28:48;;;;;;;2.20;1.92;;;;;;;;;;4750449;30;20548;-54
2022/07/29 12:31:15;;;;;;;3.47;2.00;;;;;;;;;;4750512;30;20123;-49
2022/07/29 12:34:03;;;;;;;3.92;1.80;;;;;;;;;;4750229;30;20049;-56
2022/07/29 12:36:30;;;;;;;5.10;1.67;;;;;;;;;;4750174;30;20386;-51
2022/07/29 12:38:58;;;;;;;1.90;1.40;;;;;;;;;;4750104;30;20083;-54
2022/07/29 12:41:28;;;;;;;2.20;1.55;;;;;;;;;;4749982;30;20056;-57
2022/07/29 12:43:56;;;;;;;2.97;1.48;;;;;;;;;;4750185;30;20080;-54
2022/07/29 12:46:24;;;;;;;2.05;1.40;;;;;;;;;;4749885;30;20106;-58
2022/07/29 12:48:57;;;;;;;2.65;1.70;;;;;;;;;;4749855;30;20066;-55
2022/07/29 12:51:38;;;;;;;4.97;3.20;;;;;;;;;;4749591;30;20505;-57
2022/07/29 12:54:08;;;;;;;1.58;1.20;;;;;;;;;;4750087;30;20044;-54
2022/07/29 12:56:36;;;;;;;1.92;1.20;;;;;;;;;;4749702;30;20048;-58
2022/07/29 12:59:22;;;;;;;2.67;1.02;;;;;;;;;;4749905;30;20052;-47
2022/07/29 13:01:52;;;;;;;1.55;1.08;;;;;;;;;;4749786;30;20048;-48
2022/07/29 13:04:31;;;;;;;1.00;0.75;;;;;;;;;;4749770;30;20050;-56
2022/07/29 13:07:07;;;;;;;2.97;0.70;;;;;;;;;;4749641;30;20090;-59
2022/07/29 13:09:39;;;;;;;1.75;1.00;;;;;;;;;;4749651;30;20452;-57
2022/07/29 13:12:09;;;;;;;1.90;0.90;;;;;;;;;;4749751;30;20091;-57
2022/07/29 13:14:42;;;;;;;1.50;1.00;;;;;;;;;;4749412;30;20088;-46
2022/07/29 13:17:16;;;;;;;1.48;1.00;;;;;;;;;;4749848;30;20051;-50
2022/07/29 13:20:12;;;;;;;5.10;1.35;;;;;;;;;;4749702;30;20052;-57
2022/07/29 13:22:42;;;;;;;1.40;1.10;;;;;;;;;;4749536;30;20048;-57
2022/07/29 13:25:09;;;;;;;2.45;1.48;;;;;;;;;;4750017;30;20055;-57
2022/07/29 13:27:39;;;;;;;4.38;1.83;;;;;;;;;;4750741;30;20501;-55
2022/07/29 13:30:08;;;;;;;2.00;1.40;;;;;;;;;;4751210;30;20052;-52
2022/07/29 13:32:37;;;;;;;2.33;0.93;;;;;;;;;;4751297;30;20053;-56
2022/07/29 13:35:08;;;;;;;0.90;0.70;;;;;;;;;;4751185;30;20398;-58
2022/07/29 13:37:38;;;;;;;9.23;7.07;;;;;;;;;;4751171;30;20048;-57
2022/07/29 13:40:09;;;;;;;7.20;4.57;;;;;;;;;;4751058;30;20041;-55
2022/07/29 13:42:37;;;;;;;2.03;1.52;;;;;;;;;;4750791;30;20062;-57
2022/07/29 13:45:06;;;;;;;1.63;0.90;;;;;;;;;;4751025;30;20044;-56
2022/07/29 13:47:33;;;;;;;0.95;0.77;;;;;;;;;;4750951;30;20071;-57
2022/07/29 13:50:01;;;;;;;0.77;0.70;;;;;;;;;;4750790;30;20457;-57
2022/07/29 13:52:31;;;;;;;0.85;0.80;;;;;;;;;;4750902;30;20134;-57
2022/07/29 13:55:03;;;;;;;1.25;0.70;;;;;;;;;;4751110;30;20537;-54
2022/07/29 13:57:30;;;;;;;2.42;0.90;;;;;;;;;;4750509;30;20121;-57
2022/07/29 13:59:58;;;;;;;1.70;1.17;;;;;;;;;;4750937;30;20052;-57
2022/07/29 14:02:26;;;;;;;1.15;0.63;;;;;;;;;;4750888;30;20044;-57
2022/07/29 14:04:54;;;;;;;1.80;0.90;;;;;;;;;;4754180;30;20048;-57
2022/07/29 14:07:22;;;;;;;1.02;0.75;;;;;;;;;;4754116;30;20575;-57
2022/07/29 14:09:50;;;;;;;40.83;24.70;;;;;;;;;;4753765;30;20091;-57
2022/07/29 14:12:18;;;;;;;4.20;2.45;;;;;;;;;;4754204;30;20052;-58
2022/07/29 14:14:45;;;;;;;1.30;1.02;;;;;;;;;;4754009;30;20068;-57
2022/07/29 14:17:14;;;;;;;1.08;0.98;;;;;;;;;;4753561;30;20547;-58
2022/07/29 14:19:41;;;;;;;2.03;0.90;;;;;;;;;;4753561;30;20045;-57
2022/07/29 14:22:09;;;;;;;2.53;0.82;;;;;;;;;;4753644;30;20063;-57
2022/07/29 14:24:38;;;;;;;1.30;0.73;;;;;;;;;;4752848;30;20559;-58
2022/07/29 14:27:06;;;;;;;0.68;0.60;;;;;;;;;;4754096;30;20477;-58
2022/07/29 14:29:34;;;;;;;1.98;0.95;;;;;;;;;;4753362;30;20570;-60
2022/07/29 14:32:09;;;;;;;1.52;0.60;;;;;;;;;;4753364;30;20063;-57
2022/07/29 14:34:38;;;;;;;0.77;0.70;;;;;;;;;;4753565;30;20052;-58
2022/07/29 14:37:05;;;;;;;2.42;0.80;;;;;;;;;;4753295;30;20659;-56
2022/07/29 14:39:34;;;;;;;2.50;0.80;;;;;;;;;;4753403;30;20048;-57
2022/07/29 14:42:10;;;;;;;1.30;0.50;;;;;;;;;;4753193;30;20509;-57
2022/07/29 14:44:40;;;;;;;0.63;0.60;;;;;;;;;;4753255;30;20105;-54
2022/07/29 14:47:10;;;;;;;1.75;0.75;;;;;;;;;;4753318;30;20067;-53
2022/07/29 14:49:37;;;;;;;54.15;34.60;;;;;;;;;;4753038;30;20044;-57
2022/07/29 14:52:05;;;;;;;4.35;1.95;;;;;;;;;;4751830;30;20048;-54
2022/07/29 14:54:32;;;;;;;0.85;0.50;;;;;;;;;;4752610;30;20440;-57
2022/07/29 14:57:00;;;;;;;0.52;0.45;;;;;;;;;;4752764;30;20127;-57
2022/07/29 14:59:27;;;;;;;0.70;0.50;;;;;;;;;;4752948;30;20058;-57
2022/07/29 15:01:55;;;;;;;0.80;0.50;;;;;;;;;;4752665;30;20127;-57
2022/07/29 15:04:22;;;;;;;1.50;0.43;;;;;;;;;;4752787;30;20056;-55
2022/07/29 15:06:50;;;;;;;0.65;0.40;;;;;;;;;;4753252;30;20052;-53
2022/07/29 15:09:17;;;;;;;0.77;0.40;;;;;;;;;;4752209;30;20051;-57
2022/07/29 15:11:45;;;;;;;1.15;0.60;;;;;;;;;;4753147;30;20127;-50